Time,TemperatureF,DewpointF,PressureIn,WindDirection,WindDirectionDegrees,WindSpeedMPH,WindSpeedGustMPH,Humidity,HourlyPrecipIn,Conditions,Clouds,dailyrainin,SoftwareType,DateUTC
2013-10-12 00:02:00,46.0,45.0,30.07,North,0,0.0,0.0,95,0.00,,,0.00,,2013-10-12 07:02:00,
2013-10-12 00:12:00,46.0,45.0,30.07,North,0,0.0,0.0,95,0.00,,,0.00,,2013-10-12 07:12:00,
2013-10-12 00:21:00,46.0,45.0,30.07,North,0,0.0,0.0,95,0.00,,,0.00,,2013-10-12 07:21:00,
2013-10-12 00:52:00,46.0,45.0,30.07,North,0,0.0,0.0,95,0.00,,,0.00,,2013-10-12 07:52:00,
2013-10-12 01:02:00,46.0,45.0,30.07,North,0,0.0,0.0,95,0.00,,,0.00,,2013-10-12 08:02:00,
2013-10-12 01:22:00,46.0,45.0,30.07,North,0,0.0,0.0,95,0.00,,,0.00,,2013-10-12 08:22:00,
2013-10-12 01:32:00,46.0,45.0,30.07,North,0,0.0,0.0,95,0.00,,,0.00,,2013-10-12 08:32:00,
2013-10-12 01:52:00,46.0,45.0,30.07,North,0,0.0,0.0,95,0.00,,,0.00,,2013-10-12 08:52:00,
2013-10-12 02:54:00,44.0,43.0,30.07,North,0,0.0,0.0,96,0.00,,,0.00,,2013-10-12 09:54:00,
2013-10-12 03:03:00,44.0,43.0,30.07,North,0,0.0,0.0,96,0.00,,,0.00,,2013-10-12 10:03:00,
2013-10-12 03:23:00,44.0,43.0,30.07,North,0,0.0,0.0,96,0.00,,,0.00,,2013-10-12 10:23:00,
2013-10-12 03:32:00,44.0,43.0,30.07,North,0,0.0,0.0,96,0.00,,,0.00,,2013-10-12 10:32:00,
2013-10-12 03:42:00,44.0,43.0,30.07,North,0,0.0,0.0,96,0.00,,,0.00,,2013-10-12 10:42:00,
2013-10-12 03:52:00,44.0,43.0,30.07,North,0,0.0,0.0,96,0.00,,,0.00,,2013-10-12 10:52:00,
2013-10-12 04:12:00,44.0,43.0,30.06,North,0,0.0,0.0,96,0.00,,,0.00,,2013-10-12 11:12:00,
2013-10-12 04:22:00,44.0,43.0,30.06,North,0,0.0,0.0,96,0.00,,,0.00,,2013-10-12 11:22:00,
2013-10-12 04:33:00,44.0,43.0,30.06,North,0,0.0,0.0,96,0.00,,,0.00,,2013-10-12 11:33:00,
2013-10-12 04:52:00,45.0,44.0,30.06,North,0,0.0,0.0,97,0.00,,,0.00,,2013-10-12 11:52:00,
2013-10-12 05:01:00,45.0,44.0,30.06,North,0,0.0,0.0,97,0.00,,,0.00,,2013-10-12 12:01:00,
2013-10-12 05:22:00,45.0,44.0,30.06,North,0,0.0,0.0,97,0.00,,,0.00,,2013-10-12 12:22:00,
2013-10-12 05:32:00,45.0,44.0,30.06,North,0,0.0,0.0,97,0.00,,,0.00,,2013-10-12 12:32:00,
2013-10-12 05:52:00,44.0,43.0,30.06,North,0,0.0,0.0,96,0.00,,,0.00,,2013-10-12 12:52:00,
2013-10-12 06:21:00,44.0,43.0,30.06,North,0,0.0,0.0,97,0.00,,,0.00,,2013-10-12 13:21:00,
2013-10-12 06:52:00,44.0,43.0,30.06,North,0,0.0,0.0,97,0.00,,,0.00,,2013-10-12 13:52:00,
2013-10-12 07:02:00,44.0,43.0,30.06,North,0,0.0,0.0,97,0.00,,,0.00,,2013-10-12 14:02:00,
2013-10-12 07:11:00,44.0,43.0,30.06,North,0,0.0,0.0,97,0.00,,,0.00,,2013-10-12 14:11:00,
2013-10-12 08:22:00,44.0,43.0,30.06,North,0,0.0,0.0,97,0.00,,,0.00,,2013-10-12 15:22:00,
2013-10-12 08:33:00,44.0,43.0,30.06,North,0,0.0,0.0,97,0.00,,,0.00,,2013-10-12 15:33:00,
2013-10-12 08:53:00,44.0,43.0,30.06,North,0,0.0,0.0,97,0.00,,,0.00,,2013-10-12 15:53:00,
2013-10-12 09:13:00,45.0,44.0,30.06,North,0,0.0,0.0,97,0.00,,,0.00,,2013-10-12 16:13:00,
2013-10-12 09:23:00,45.0,44.0,30.06,North,0,0.0,0.0,97,0.00,,,0.00,,2013-10-12 16:23:00,
2013-10-12 09:33:00,45.0,44.0,30.06,North,0,0.0,0.0,97,0.00,,,0.00,,2013-10-12 16:33:00,
2013-10-12 09:43:00,45.0,44.0,30.06,North,0,0.0,0.0,97,0.00,,,0.00,,2013-10-12 16:43:00,
2013-10-12 10:13:00,47.0,45.0,30.06,North,0,0.0,0.0,94,0.00,,,0.00,,2013-10-12 17:13:00,
2013-10-12 10:23:00,47.0,45.0,30.06,North,0,0.0,0.0,94,0.00,,,0.00,,2013-10-12 17:23:00,
2013-10-12 10:53:00,50.0,47.0,30.05,North,0,0.0,0.0,89,0.00,,,0.00,,2013-10-12 17:53:00,
2013-10-12 11:02:00,50.0,47.0,30.05,North,0,0.0,0.0,89,0.00,,,0.00,,2013-10-12 18:02:00,
2013-10-12 11:21:00,51.0,46.0,30.05,North,0,0.0,0.0,83,0.00,,,0.00,,2013-10-12 18:21:00,
2013-10-12 11:52:00,51.0,46.0,30.06,North,0,0.0,0.0,83,0.00,,,0.00,,2013-10-12 18:52:00,
2013-10-12 12:01:00,51.0,46.0,30.06,North,0,0.0,0.0,83,0.00,,,0.00,,2013-10-12 19:01:00,
2013-10-12 12:11:00,51.0,46.0,30.06,North,0,0.0,0.0,83,0.00,,,0.00,,2013-10-12 19:11:00,
2013-10-12 12:22:00,51.0,46.0,30.06,North,0,0.0,0.0,83,0.00,,,0.00,,2013-10-12 19:22:00,
2013-10-12 12:52:00,53.0,47.0,30.06,North,4,0.0,3.0,80,0.00,,,0.00,,2013-10-12 19:52:00,
2013-10-12 13:22:00,53.0,43.0,30.06,West,267,0.0,4.0,70,0.00,,,0.00,,2013-10-12 20:22:00,
2013-10-12 13:31:00,53.0,43.0,30.06,West,267,0.0,4.0,70,0.00,,,0.00,,2013-10-12 20:31:00,
2013-10-12 13:52:00,54.0,43.0,30.04,WNW,285,1.0,3.0,67,0.00,,,0.00,,2013-10-12 20:52:00,
2013-10-12 14:11:00,54.0,44.0,30.04,NW,306,0.0,3.0,69,0.00,,,0.00,,2013-10-12 21:11:00,
2013-10-12 14:22:00,54.0,44.0,30.04,NW,306,0.0,3.0,69,0.00,,,0.00,,2013-10-12 21:22:00,
2013-10-12 14:34:00,54.0,44.0,30.04,NW,306,0.0,3.0,69,0.00,,,0.00,,2013-10-12 21:34:00,
2013-10-12 14:43:00,54.0,44.0,30.04,NW,306,0.0,3.0,69,0.00,,,0.00,,2013-10-12 21:43:00,
2013-10-12 15:13:00,55.0,45.0,30.03,NW,320,0.0,2.0,70,0.00,,,0.00,,2013-10-12 22:13:00,
2013-10-12 15:24:00,55.0,45.0,30.03,NW,320,0.0,2.0,70,0.00,,,0.00,,2013-10-12 22:24:00,
2013-10-12 15:33:00,55.0,45.0,30.03,NW,320,0.0,2.0,70,0.00,,,0.00,,2013-10-12 22:33:00,
2013-10-12 15:54:00,56.0,46.0,30.04,SW,233,1.0,3.0,68,0.00,,,0.00,,2013-10-12 22:54:00,
2013-10-12 16:02:00,56.0,46.0,30.04,SW,233,1.0,3.0,68,0.00,,,0.00,,2013-10-12 23:02:00,
2013-10-12 16:22:00,55.0,45.0,30.04,North,356,0.0,3.0,70,0.00,,,0.00,,2013-10-12 23:22:00,
2013-10-12 16:33:00,55.0,45.0,30.04,North,356,0.0,3.0,70,0.00,,,0.00,,2013-10-12 23:33:00,
2013-10-12 16:42:00,55.0,45.0,30.04,North,356,0.0,3.0,70,0.00,,,0.00,,2013-10-12 23:42:00,
2013-10-12 16:52:00,55.0,45.0,30.04,North,356,0.0,3.0,70,0.00,,,0.00,,2013-10-12 23:52:00,
2013-10-12 18:42:00,53.0,46.0,30.06,North,0,0.0,0.0,78,0.00,,,0.00,,2013-10-13 01:42:00,
2013-10-12 18:52:00,53.0,46.0,30.06,North,0,0.0,0.0,78,0.00,,,0.00,,2013-10-13 01:52:00,
2013-10-12 19:11:00,52.0,47.0,30.06,North,0,0.0,0.0,82,0.00,,,0.00,,2013-10-13 02:11:00,
2013-10-12 19:22:00,52.0,47.0,30.06,North,0,0.0,0.0,82,0.00,,,0.00,,2013-10-13 02:22:00,
2013-10-12 19:32:00,52.0,47.0,30.06,North,0,0.0,0.0,82,0.00,,,0.00,,2013-10-13 02:32:00,
2013-10-12 19:52:00,51.0,47.0,30.06,North,0,0.0,0.0,86,0.00,,,0.00,,2013-10-13 02:52:00,
2013-10-12 20:22:00,50.0,47.0,30.07,North,0,0.0,0.0,88,0.00,,,0.00,,2013-10-13 03:22:00,
2013-10-12 20:34:00,50.0,47.0,30.07,North,0,0.0,0.0,88,0.00,,,0.00,,2013-10-13 03:34:00,
2013-10-12 20:44:00,50.0,47.0,30.07,North,0,0.0,0.0,88,0.00,,,0.00,,2013-10-13 03:44:00,
2013-10-12 20:54:00,50.0,47.0,30.07,North,0,0.0,0.0,88,0.00,,,0.00,,2013-10-13 03:54:00,
2013-10-12 21:02:00,-999.0,-99.9,30.09,North,0,0.0,0.0,-999,-99.99,,,-99.99,,2013-10-13 04:02:00,
2013-10-12 21:23:00,46.0,44.0,30.09,South,173,0.0,1.0,91,0.00,,,0.00,,2013-10-13 04:23:00,
2013-10-12 21:33:00,46.0,44.0,30.09,South,173,0.0,1.0,91,0.00,,,0.00,,2013-10-13 04:33:00,
2013-10-12 21:54:00,46.0,44.0,30.10,North,0,0.0,0.0,94,0.00,,,0.00,,2013-10-13 04:54:00,
2013-10-12 22:03:00,46.0,44.0,30.10,North,0,0.0,0.0,94,0.00,,,0.00,,2013-10-13 05:03:00,
2013-10-12 22:23:00,44.0,43.0,30.11,North,0,0.0,0.0,95,0.00,,,0.00,,2013-10-13 05:23:00,
2013-10-12 22:34:00,44.0,43.0,30.11,North,0,0.0,0.0,95,0.00,,,0.00,,2013-10-13 05:34:00,
2013-10-12 22:43:00,44.0,43.0,30.11,North,0,0.0,0.0,95,0.00,,,0.00,,2013-10-13 05:43:00,
2013-10-12 22:52:00,44.0,43.0,30.11,North,0,0.0,0.0,95,0.00,,,0.00,,2013-10-13 05:52:00,
2013-10-12 23:52:00,42.0,41.0,30.11,North,0,0.0,0.0,96,0.00,,,0.00,,2013-10-13 06:52:00,